PWSweather.com
Personal Weather Stations
Station Observations
MADWEATHER
MadeiraPT

MadeiraPT

Lat: 32.735, Lon: -17.194

Elevation: 1063

Station Type: Davis VantagePro2

Latest ConditionsUpdated 8:10:02 PM GMT Saturday, Aug 1, 2015
Currently Today's Max Today's Min Today's Average
Temperature 69.4°F20.8°C 74.6°F23.7°C 67.1°F19.5°C 70.6°F21.4°C
Dew Point 61.9°F16.6°C 64.1°F17.8°C 55.8°F13.2°C 60.8°F16.0°C
Winds 0.1 mph SW0.2 kmh SW 9.6 mph NE15.4 kmh NE - 3.2 mph 5.1 kmh
Wind Gusts -- 12.0 mph19.3 kmh - -
Humidity 77% 81% 57% 71%
Pressure 29.98 in1015.2 mb 30.04 in1017.3 mb 29.97 in1014.9 mb -
Hour Temp Dew Point Humidity Winds Wind Gusts Pressure Precip Precip Rate Daily Precip Total
08:10 PM 69.4°F20.8°C 61.9°F16.6°C 77% 0.1 mph SW0.2 kmh SW -- 29.98 in1015.2 mb - 0.00 in0.0 mm 0.00 in0.0 mm
08:00 PM 69.9°F21.1°C 62.4°F16.9°C 77% 1.1 mph SW1.8 kmh SW 1.0 mph1.6 kmh 29.98 in1015.2 mb - 0.00 in0.0 mm 0.00 in0.0 mm
07:50 PM 70.3°F21.3°C 62.4°F16.9°C 76% 3.1 mph SW5.0 kmh SW 4.0 mph6.4 kmh 29.98 in1015.2 mb - 0.00 in0.0 mm 0.00 in0.0 mm
07:40 PM 70.8°F21.6°C 62.4°F16.9°C 75% 2.1 mph SW3.4 kmh SW 5.0 mph8.0 kmh 29.98 in1015.2 mb - 0.00 in0.0 mm 0.00 in0.0 mm
07:30 PM 71.5°F21.9°C 62.8°F17.1°C 74% 3.7 mph SW6.0 kmh SW 5.0 mph8.0 kmh 29.98 in1015.2 mb - 0.00 in0.0 mm 0.00 in0.0 mm
07:20 PM 71.4°F21.9°C 62.7°F17.1°C 74% 1.4 mph SW2.3 kmh SW 2.0 mph3.2 kmh 29.97 in1014.9 mb - 0.00 in0.0 mm 0.00 in0.0 mm
07:10 PM 71.6°F22.0°C 62.5°F16.9°C 73% 4.3 mph SW6.9 kmh SW 6.0 mph9.7 kmh 29.97 in1014.9 mb - 0.00 in0.0 mm 0.00 in0.0 mm
07:00 PM 71.8°F22.1°C 62.3°F16.8°C 72% 2.4 mph SW3.9 kmh SW 3.0 mph4.8 kmh 29.97 in1014.9 mb - 0.00 in0.0 mm 0.00 in0.0 mm
06:50 PM 72.0°F22.2°C 62.5°F16.9°C 72% 3.1 mph SW5.0 kmh SW 4.0 mph6.4 kmh 29.97 in1014.9 mb - 0.00 in0.0 mm 0.00 in0.0 mm
06:40 PM 72.0°F22.2°C 62.5°F16.9°C 72% 4.0 mph SW6.4 kmh SW 6.0 mph9.7 kmh 29.97 in1014.9 mb - 0.00 in0.0 mm 0.00 in0.0 mm
06:30 PM 72.5°F22.5°C 62.6°F17.0°C 71% 5.0 mph SW8.0 kmh SW 9.0 mph14.5 kmh 29.97 in1014.9 mb - 0.00 in0.0 mm 0.00 in0.0 mm
06:20 PM 72.6°F22.6°C 63.5°F17.5°C 73% 4.9 mph SW7.9 kmh SW 8.0 mph12.9 kmh 29.98 in1015.2 mb - 0.00 in0.0 mm 0.00 in0.0 mm
06:10 PM 72.1°F22.3°C 63.0°F17.2°C 73% 5.7 mph SW9.2 kmh SW 8.0 mph12.9 kmh 29.98 in1015.2 mb - 0.00 in0.0 mm 0.00 in0.0 mm
06:00 PM 72.3°F22.4°C 63.1°F17.3°C 73% 4.0 mph SW6.4 kmh SW 7.0 mph11.3 kmh 29.98 in1015.2 mb - 0.00 in0.0 mm 0.00 in0.0 mm
05:50 PM 72.4°F22.4°C 62.8°F17.1°C 72% 5.4 mph SW8.7 kmh SW 7.0 mph11.3 kmh 29.98 in1015.2 mb - 0.00 in0.0 mm 0.00 in0.0 mm
05:40 PM 72.7°F22.6°C 63.1°F17.3°C 72% 4.1 mph SW6.6 kmh SW 7.0 mph11.3 kmh 29.98 in1015.2 mb - 0.00 in0.0 mm 0.00 in0.0 mm
05:30 PM 72.1°F22.3°C 63.4°F17.4°C 74% 3.9 mph SW6.3 kmh SW 7.0 mph11.3 kmh 29.98 in1015.2 mb - 0.00 in0.0 mm 0.00 in0.0 mm
05:20 PM 73.0°F22.8°C 63.5°F17.5°C 72% 5.3 mph SW8.5 kmh SW 7.0 mph11.3 kmh 29.98 in1015.2 mb - 0.00 in0.0 mm 0.00 in0.0 mm
05:10 PM 72.7°F22.6°C 62.8°F17.1°C 71% 3.7 mph SW6.0 kmh SW 6.0 mph9.7 kmh 29.98 in1015.2 mb - 0.00 in0.0 mm 0.00 in0.0 mm
05:00 PM 73.5°F23.1°C 63.1°F17.3°C 70% 5.2 mph SW8.4 kmh SW 6.0 mph9.7 kmh 29.99 in1015.6 mb - 0.00 in0.0 mm 0.00 in0.0 mm
04:50 PM 72.5°F22.5°C 63.0°F17.2°C 72% 5.6 mph SW9.0 kmh SW 7.0 mph11.3 kmh 29.99 in1015.6 mb - 0.00 in0.0 mm 0.00 in0.0 mm
04:40 PM 72.2°F22.3°C 62.7°F17.1°C 72% 2.8 mph SW4.5 kmh SW 5.0 mph8.0 kmh 29.99 in1015.6 mb - 0.00 in0.0 mm 0.00 in0.0 mm
04:30 PM 72.2°F22.3°C 63.0°F17.2°C 73% 3.5 mph SW5.6 kmh SW 5.0 mph8.0 kmh 29.99 in1015.6 mb - 0.00 in0.0 mm 0.00 in0.0 mm
04:20 PM 72.6°F22.6°C 63.4°F17.4°C 73% 3.2 mph SW5.1 kmh SW 5.0 mph8.0 kmh 29.99 in1015.6 mb - 0.00 in0.0 mm 0.00 in0.0 mm
04:10 PM 72.9°F22.7°C 63.3°F17.4°C 72% 3.7 mph SW6.0 kmh SW 6.0 mph9.7 kmh 29.99 in1015.6 mb - 0.00 in0.0 mm 0.00 in0.0 mm
04:00 PM 73.5°F23.1°C 63.1°F17.3°C 70% 5.9 mph SW9.5 kmh SW 8.0 mph12.9 kmh 30.00 in1015.9 mb - 0.00 in0.0 mm 0.00 in0.0 mm
03:50 PM 73.2°F22.9°C 63.2°F17.3°C 71% 5.0 mph WSW8.0 kmh WSW 7.0 mph11.3 kmh 29.99 in1015.6 mb - 0.00 in0.0 mm 0.00 in0.0 mm
03:40 PM 74.4°F23.6°C 63.5°F17.5°C 69% 6.2 mph WSW10.0 kmh WSW 10.0 mph16.1 kmh 29.99 in1015.6 mb - 0.00 in0.0 mm 0.00 in0.0 mm
03:30 PM 74.6°F23.7°C 64.1°F17.8°C 70% 6.2 mph WSW10.0 kmh WSW 9.0 mph14.5 kmh 29.99 in1015.6 mb - 0.00 in0.0 mm 0.00 in0.0 mm
03:20 PM 73.7°F23.2°C 63.3°F17.4°C 70% 5.5 mph WSW8.9 kmh WSW 7.0 mph11.3 kmh 29.99 in1015.6 mb - 0.00 in0.0 mm 0.00 in0.0 mm
03:10 PM 73.9°F23.3°C 63.5°F17.5°C 70% 4.8 mph WSW7.7 kmh WSW 7.0 mph11.3 kmh 30.00 in1015.9 mb - 0.00 in0.0 mm 0.00 in0.0 mm
03:00 PM 73.8°F23.2°C 63.0°F17.2°C 69% 5.2 mph WSW8.4 kmh WSW 7.0 mph11.3 kmh 30.00 in1015.9 mb - 0.00 in0.0 mm 0.00 in0.0 mm
02:50 PM 74.0°F23.3°C 63.2°F17.3°C 69% 3.4 mph WSW5.5 kmh WSW 5.0 mph8.0 kmh 30.00 in1015.9 mb - 0.00 in0.0 mm 0.00 in0.0 mm
02:40 PM 72.7°F22.6°C 63.1°F17.3°C 72% 4.0 mph WSW6.4 kmh WSW 6.0 mph9.7 kmh 30.00 in1015.9 mb - 0.00 in0.0 mm 0.00 in0.0 mm
02:30 PM 72.8°F22.7°C 63.2°F17.3°C 72% 5.1 mph WSW8.2 kmh WSW 7.0 mph11.3 kmh 30.01 in1016.3 mb - 0.00 in0.0 mm 0.00 in0.0 mm
02:20 PM 73.3°F22.9°C 63.3°F17.4°C 71% 4.6 mph WSW7.4 kmh WSW 6.0 mph9.7 kmh 30.00 in1015.9 mb - 0.00 in0.0 mm 0.00 in0.0 mm
02:10 PM 73.6°F23.1°C 63.6°F17.6°C 71% 5.5 mph WSW8.9 kmh WSW 10.0 mph16.1 kmh 30.00 in1015.9 mb - 0.00 in0.0 mm 0.00 in0.0 mm
02:00 PM 72.5°F22.5°C 63.4°F17.4°C 73% 4.5 mph WSW7.2 kmh WSW 6.0 mph9.7 kmh 30.00 in1015.9 mb - 0.00 in0.0 mm 0.00 in0.0 mm
01:50 PM 71.7°F22.1°C 63.3°F17.4°C 75% 4.2 mph WSW6.8 kmh WSW 6.0 mph9.7 kmh 30.01 in1016.3 mb - 0.00 in0.0 mm 0.00 in0.0 mm
01:40 PM 71.3°F21.8°C 63.0°F17.2°C 75% 5.8 mph SW9.3 kmh SW 7.0 mph11.3 kmh 30.01 in1016.3 mb - 0.00 in0.0 mm 0.00 in0.0 mm
01:30 PM 71.0°F21.7°C 62.7°F17.1°C 75% 4.5 mph SW7.2 kmh SW 6.0 mph9.7 kmh 30.01 in1016.3 mb - 0.00 in0.0 mm 0.00 in0.0 mm
01:20 PM 71.0°F21.7°C 62.6°F17.0°C 75% 2.2 mph SW3.5 kmh SW 5.0 mph8.0 kmh 30.01 in1016.3 mb - 0.00 in0.0 mm 0.00 in0.0 mm
01:10 PM 71.0°F21.7°C 63.1°F17.3°C 76% 3.5 mph SW5.6 kmh SW 5.0 mph8.0 kmh 30.01 in1016.3 mb - 0.00 in0.0 mm 0.00 in0.0 mm
01:00 PM 71.0°F21.7°C 63.1°F17.3°C 76% 2.3 mph SW3.7 kmh SW 4.0 mph6.4 kmh 30.01 in1016.3 mb - 0.00 in0.0 mm 0.00 in0.0 mm
12:50 PM 71.1°F21.7°C 62.7°F17.1°C 75% 3.7 mph SW6.0 kmh SW 7.0 mph11.3 kmh 30.01 in1016.3 mb - 0.00 in0.0 mm 0.00 in0.0 mm
12:40 PM 71.3°F21.8°C 62.9°F17.2°C 75% 3.7 mph SW6.0 kmh SW 6.0 mph9.7 kmh 30.02 in1016.6 mb - 0.00 in0.0 mm 0.00 in0.0 mm
12:30 PM 71.3°F21.8°C 63.0°F17.2°C 75% 3.8 mph SW6.1 kmh SW 6.0 mph9.7 kmh 30.02 in1016.6 mb - 0.00 in0.0 mm 0.00 in0.0 mm
12:20 PM 71.8°F22.1°C 63.1°F17.3°C 74% 2.4 mph SW3.9 kmh SW 6.0 mph9.7 kmh 30.02 in1016.6 mb - 0.00 in0.0 mm 0.00 in0.0 mm
12:10 PM 72.5°F22.5°C 64.1°F17.8°C 75% 5.4 mph SW8.7 kmh SW 10.0 mph16.1 kmh 30.02 in1016.6 mb - 0.00 in0.0 mm 0.00 in0.0 mm
12:00 PM 71.3°F21.8°C 64.1°F17.8°C 78% 3.0 mph SSW4.8 kmh SSW 7.0 mph11.3 kmh 30.01 in1016.3 mb - 0.00 in0.0 mm 0.00 in0.0 mm
11:50 AM 70.4°F21.3°C 63.2°F17.3°C 78% 0.8 mph SSW1.3 kmh SSW 5.0 mph8.0 kmh 30.01 in1016.3 mb - 0.00 in0.0 mm 0.00 in0.0 mm
11:40 AM 70.5°F21.4°C 63.3°F17.4°C 78% 3.2 mph SSW5.1 kmh SSW 5.0 mph8.0 kmh 30.02 in1016.6 mb - 0.00 in0.0 mm 0.00 in0.0 mm
11:30 AM 70.8°F21.6°C 63.2°F17.3°C 77% 4.2 mph SSW6.8 kmh SSW 5.0 mph8.0 kmh 30.02 in1016.6 mb - 0.00 in0.0 mm 0.00 in0.0 mm
11:20 AM 71.2°F21.8°C 63.3°F17.4°C 76% 5.4 mph SSW8.7 kmh SSW 9.0 mph14.5 kmh 30.01 in1016.3 mb - 0.00 in0.0 mm 0.00 in0.0 mm
11:10 AM 71.3°F21.8°C 63.3°F17.4°C 76% 3.9 mph S6.3 kmh S 6.0 mph9.7 kmh 30.01 in1016.3 mb - 0.00 in0.0 mm 0.00 in0.0 mm
11:00 AM 71.2°F21.8°C 63.2°F17.3°C 76% 4.2 mph S6.8 kmh S 6.0 mph9.7 kmh 30.01 in1016.3 mb - 0.00 in0.0 mm 0.00 in0.0 mm
10:50 AM 72.0°F22.2°C 63.6°F17.6°C 75% 4.3 mph S6.9 kmh S 5.0 mph8.0 kmh 30.02 in1016.6 mb - 0.00 in0.0 mm 0.00 in0.0 mm
10:40 AM 71.5°F21.9°C 62.7°F17.1°C 74% 4.1 mph S6.6 kmh S 7.0 mph11.3 kmh 30.01 in1016.3 mb - 0.00 in0.0 mm 0.00 in0.0 mm
10:30 AM 71.4°F21.9°C 62.3°F16.8°C 73% 4.4 mph S7.1 kmh S 5.0 mph8.0 kmh 30.01 in1016.3 mb - 0.00 in0.0 mm 0.00 in0.0 mm
10:20 AM 71.7°F22.1°C 63.8°F17.7°C 76% 5.6 mph S9.0 kmh S 10.0 mph16.1 kmh 30.02 in1016.6 mb - 0.00 in0.0 mm 0.00 in0.0 mm
10:10 AM 71.6°F22.0°C 63.6°F17.6°C 76% 5.0 mph S8.0 kmh S 7.0 mph11.3 kmh 30.01 in1016.3 mb - 0.00 in0.0 mm 0.00 in0.0 mm
10:00 AM 71.5°F21.9°C 63.2°F17.3°C 75% 3.9 mph S6.3 kmh S 9.0 mph14.5 kmh 30.01 in1016.3 mb - 0.00 in0.0 mm 0.00 in0.0 mm
09:50 AM 71.2°F21.8°C 63.2°F17.3°C 76% 3.4 mph S5.5 kmh S 5.0 mph8.0 kmh 30.01 in1016.3 mb - 0.00 in0.0 mm 0.00 in0.0 mm
09:40 AM 72.0°F22.2°C 62.0°F16.7°C 71% 4.6 mph S7.4 kmh S 7.0 mph11.3 kmh 30.01 in1016.3 mb - 0.00 in0.0 mm 0.00 in0.0 mm
09:30 AM 72.6°F22.6°C 62.3°F16.8°C 70% 4.3 mph S6.9 kmh S 7.0 mph11.3 kmh 30.00 in1015.9 mb - 0.00 in0.0 mm 0.00 in0.0 mm
09:20 AM 73.5°F23.1°C 62.7°F17.1°C 69% 5.3 mph S8.5 kmh S 6.0 mph9.7 kmh 30.00 in1015.9 mb - 0.00 in0.0 mm 0.00 in0.0 mm
09:10 AM 74.3°F23.5°C 59.0°F15.0°C 59% 3.1 mph E5.0 kmh E 4.0 mph6.4 kmh 30.00 in1015.9 mb - 0.00 in0.0 mm 0.00 in0.0 mm
09:00 AM 73.8°F23.2°C 57.6°F14.2°C 57% 0.2 mph ENE0.3 kmh ENE 3.0 mph4.8 kmh 30.00 in1015.9 mb - 0.00 in0.0 mm 0.00 in0.0 mm
08:50 AM 72.9°F22.7°C 57.7°F14.3°C 59% 0.3 mph NE0.5 kmh NE 5.0 mph8.0 kmh 30.00 in1015.9 mb - 0.00 in0.0 mm 0.00 in0.0 mm
08:40 AM 72.1°F22.3°C 56.5°F13.6°C 58% 5.8 mph ENE9.3 kmh ENE 10.0 mph16.1 kmh 30.00 in1015.9 mb - 0.00 in0.0 mm 0.00 in0.0 mm
08:30 AM 71.9°F22.2°C 56.3°F13.5°C 58% 8.0 mph NE12.9 kmh NE 11.0 mph17.7 kmh 30.00 in1015.9 mb - 0.00 in0.0 mm 0.00 in0.0 mm
08:20 AM 71.3°F21.8°C 56.2°F13.4°C 59% 4.8 mph E7.7 kmh E 7.0 mph11.3 kmh 30.00 in1015.9 mb - 0.00 in0.0 mm 0.00 in0.0 mm
08:10 AM 71.0°F21.7°C 56.4°F13.6°C 60% 3.7 mph ENE6.0 kmh ENE 9.0 mph14.5 kmh 30.00 in1015.9 mb - 0.00 in0.0 mm 0.00 in0.0 mm
08:00 AM 70.4°F21.3°C 56.3°F13.5°C 61% 3.7 mph NE6.0 kmh NE 7.0 mph11.3 kmh 30.00 in1015.9 mb - 0.00 in0.0 mm 0.00 in0.0 mm
07:50 AM 70.2°F21.2°C 56.1°F13.4°C 61% 9.6 mph NE15.4 kmh NE 12.0 mph19.3 kmh 30.00 in1015.9 mb - 0.00 in0.0 mm 0.00 in0.0 mm
07:40 AM 69.6°F20.9°C 56.4°F13.6°C 63% 3.1 mph ENE5.0 kmh ENE 3.0 mph4.8 kmh 30.00 in1015.9 mb - 0.00 in0.0 mm 0.00 in0.0 mm
07:30 AM 68.9°F20.5°C 56.2°F13.4°C 64% 3.3 mph NE5.3 kmh NE 6.0 mph9.7 kmh 30.00 in1015.9 mb - 0.00 in0.0 mm 0.00 in0.0 mm
07:20 AM 68.5°F20.3°C 56.6°F13.7°C 66% 3.9 mph NE6.3 kmh NE 5.0 mph8.0 kmh 30.00 in1015.9 mb - 0.00 in0.0 mm 0.00 in0.0 mm
07:10 AM 67.9°F19.9°C 56.9°F13.8°C 68% 3.4 mph NE5.5 kmh NE 5.0 mph8.0 kmh 29.99 in1015.6 mb - 0.00 in0.0 mm 0.00 in0.0 mm
07:00 AM 67.6°F19.8°C 57.9°F14.4°C 71% Calm Calm -- 29.99 in1015.6 mb - 0.00 in0.0 mm 0.00 in0.0 mm
06:50 AM 67.5°F19.7°C 60.0°F15.6°C 77% Calm Calm -- 29.99 in1015.6 mb - 0.00 in0.0 mm 0.00 in0.0 mm
06:40 AM 67.5°F19.7°C 60.8°F16.0°C 79% Calm Calm -- 29.99 in1015.6 mb - 0.00 in0.0 mm 0.00 in0.0 mm
06:30 AM 67.6°F19.8°C 61.6°F16.4°C 81% Calm Calm -- 29.99 in1015.6 mb - 0.00 in0.0 mm 0.00 in0.0 mm
06:20 AM 67.6°F19.8°C 61.6°F16.4°C 81% Calm Calm -- 29.98 in1015.2 mb - 0.00 in0.0 mm 0.00 in0.0 mm
06:10 AM 67.6°F19.8°C 61.6°F16.4°C 81% Calm Calm -- 29.98 in1015.2 mb - 0.00 in0.0 mm 0.00 in0.0 mm
06:00 AM 67.5°F19.7°C 61.5°F16.4°C 81% Calm Calm -- 29.98 in1015.2 mb - 0.00 in0.0 mm 0.00 in0.0 mm
05:50 AM 67.6°F19.8°C 61.2°F16.2°C 80% Calm Calm -- 29.98 in1015.2 mb - 0.00 in0.0 mm 0.00 in0.0 mm
05:40 AM 67.5°F19.7°C 61.1°F16.2°C 80% Calm Calm -- 29.99 in1015.6 mb - 0.00 in0.0 mm 0.00 in0.0 mm
05:30 AM 67.4°F19.7°C 60.7°F15.9°C 79% Calm Calm -- 29.98 in1015.2 mb - 0.00 in0.0 mm 0.00 in0.0 mm
05:20 AM 67.3°F19.6°C 59.8°F15.4°C 77% Calm Calm -- 29.98 in1015.2 mb - 0.00 in0.0 mm 0.00 in0.0 mm
05:10 AM 67.2°F19.6°C 60.1°F15.6°C 78% Calm Calm -- 29.98 in1015.2 mb - 0.00 in0.0 mm 0.00 in0.0 mm
05:00 AM 67.1°F19.5°C 59.7°F15.4°C 77% Calm Calm -- 29.99 in1015.6 mb - 0.00 in0.0 mm 0.00 in0.0 mm
04:50 AM 67.4°F19.7°C 59.9°F15.5°C 77% 0.3 mph ENE0.5 kmh ENE 2.0 mph3.2 kmh 29.99 in1015.6 mb - 0.00 in0.0 mm 0.00 in0.0 mm
04:40 AM 67.2°F19.6°C 59.8°F15.4°C 77% 0.2 mph ENE0.3 kmh ENE -- 29.99 in1015.6 mb - 0.00 in0.0 mm 0.00 in0.0 mm
04:30 AM 67.2°F19.6°C 59.7°F15.4°C 77% 1.4 mph ENE2.3 kmh ENE 3.0 mph4.8 kmh 29.99 in1015.6 mb - 0.00 in0.0 mm 0.00 in0.0 mm
04:20 AM 67.1°F19.5°C 58.9°F14.9°C 75% 2.0 mph ENE3.2 kmh ENE 3.0 mph4.8 kmh 29.99 in1015.6 mb - 0.00 in0.0 mm 0.00 in0.0 mm
04:10 AM 67.3°F19.6°C 58.7°F14.8°C 74% 3.2 mph ENE5.1 kmh ENE 4.0 mph6.4 kmh 29.99 in1015.6 mb - 0.00 in0.0 mm 0.00 in0.0 mm
04:00 AM 67.6°F19.8°C 58.6°F14.8°C 73% 2.8 mph ENE4.5 kmh ENE 3.0 mph4.8 kmh 29.99 in1015.6 mb - 0.00 in0.0 mm 0.00 in0.0 mm
03:50 AM 68.2°F20.1°C 60.0°F15.6°C 75% Calm Calm -- 29.99 in1015.6 mb - 0.00 in0.0 mm 0.00 in0.0 mm
03:40 AM 68.3°F20.2°C 58.6°F14.8°C 71% 2.8 mph ENE4.5 kmh ENE 4.0 mph6.4 kmh 30.00 in1015.9 mb - 0.00 in0.0 mm 0.00 in0.0 mm
03:30 AM 68.7°F20.4°C 57.3°F14.1°C 67% 2.8 mph NE4.5 kmh NE 5.0 mph8.0 kmh 30.00 in1015.9 mb - 0.00 in0.0 mm 0.00 in0.0 mm
03:20 AM 68.8°F20.4°C 57.4°F14.1°C 67% 4.9 mph NE7.9 kmh NE 10.0 mph16.1 kmh 30.00 in1015.9 mb - 0.00 in0.0 mm 0.00 in0.0 mm
03:10 AM 68.9°F20.5°C 56.6°F13.7°C 65% 2.7 mph NE4.3 kmh NE 4.0 mph6.4 kmh 29.99 in1015.6 mb - 0.00 in0.0 mm 0.00 in0.0 mm
03:00 AM 68.9°F20.5°C 56.2°F13.4°C 64% 4.4 mph ENE7.1 kmh ENE 7.0 mph11.3 kmh 30.00 in1015.9 mb - 0.00 in0.0 mm 0.00 in0.0 mm
02:50 AM 68.9°F20.5°C 55.8°F13.2°C 63% 2.6 mph ENE4.2 kmh ENE 3.0 mph4.8 kmh 30.00 in1015.9 mb - 0.00 in0.0 mm 0.00 in0.0 mm
02:40 AM 68.9°F20.5°C 56.6°F13.7°C 65% 3.1 mph NE5.0 kmh NE 6.0 mph9.7 kmh 30.00 in1015.9 mb - 0.00 in0.0 mm 0.00 in0.0 mm
02:30 AM 68.9°F20.5°C 58.3°F14.6°C 69% Calm Calm -- 30.00 in1015.9 mb - 0.00 in0.0 mm 0.00 in0.0 mm
02:20 AM 69.1°F20.6°C 58.5°F14.7°C 69% Calm Calm -- 30.00 in1015.9 mb - 0.00 in0.0 mm 0.00 in0.0 mm
02:10 AM 69.3°F20.7°C 57.9°F14.4°C 67% Calm Calm -- 30.00 in1015.9 mb - 0.00 in0.0 mm 0.00 in0.0 mm
02:00 AM 69.3°F20.7°C 57.9°F14.4°C 67% 2.5 mph NE4.0 kmh NE 3.0 mph4.8 kmh 30.01 in1016.3 mb - 0.00 in0.0 mm 0.00 in0.0 mm
01:50 AM 69.3°F20.7°C 57.9°F14.4°C 67% 0.9 mph NE1.4 kmh NE 1.0 mph1.6 kmh 30.01 in1016.3 mb - 0.00 in0.0 mm 0.00 in0.0 mm
01:40 AM 69.3°F20.7°C 57.9°F14.4°C 67% 1.5 mph NE2.4 kmh NE 2.0 mph3.2 kmh 30.01 in1016.3 mb - 0.00 in0.0 mm 0.00 in0.0 mm
01:30 AM 69.1°F20.6°C 57.7°F14.3°C 67% 2.5 mph NE4.0 kmh NE 4.0 mph6.4 kmh 30.02 in1016.6 mb - 0.00 in0.0 mm 0.00 in0.0 mm
01:20 AM 68.6°F20.3°C 57.6°F14.2°C 68% 0.4 mph NE0.6 kmh NE 4.0 mph6.4 kmh 30.02 in1016.6 mb - 0.00 in0.0 mm 0.00 in0.0 mm
01:10 AM 68.3°F20.2°C 57.3°F14.1°C 68% 2.7 mph NE4.3 kmh NE 4.0 mph6.4 kmh 30.02 in1016.6 mb - 0.00 in0.0 mm 0.00 in0.0 mm
01:00 AM 68.0°F20.0°C 56.6°F13.7°C 67% 3.0 mph NE4.8 kmh NE 4.0 mph6.4 kmh 30.02 in1016.6 mb - 0.00 in0.0 mm 0.00 in0.0 mm
12:50 AM 68.1°F20.1°C 56.3°F13.5°C 66% 4.1 mph NE6.6 kmh NE 6.0 mph9.7 kmh 30.03 in1016.9 mb - 0.00 in0.0 mm 0.00 in0.0 mm
12:40 AM 68.5°F20.3°C 56.3°F13.5°C 65% 4.4 mph E7.1 kmh E 5.0 mph8.0 kmh 30.03 in1016.9 mb - 0.00 in0.0 mm 0.00 in0.0 mm
12:30 AM 68.9°F20.5°C 56.3°F13.5°C 64% 2.3 mph E3.7 kmh E 4.0 mph6.4 kmh 30.03 in1016.9 mb - 0.00 in0.0 mm 0.00 in0.0 mm
12:20 AM 69.4°F20.8°C 56.3°F13.5°C 63% 1.7 mph ESE2.7 kmh ESE 3.0 mph4.8 kmh 30.04 in1017.3 mb - 0.00 in0.0 mm 0.00 in0.0 mm
12:10 AM 69.5°F20.8°C 56.3°F13.5°C 63% 2.9 mph E4.7 kmh E 10.0 mph16.1 kmh 30.03 in1016.9 mb - 0.00 in0.0 mm 0.00 in0.0 mm
12:00 AM 69.2°F20.7°C 56.5°F13.6°C 64% 6.4 mph E10.3 kmh E 11.0 mph17.7 kmh 30.03 in1016.9 mb - 0.00 in0.0 mm 0.00 in0.0 mm